sensor_id;sensor_type;location;lat;lon;timestamp;pressure;altitude;pressure_sealevel;temperature;humidity
9059;BME280;4564;42.034;25.834;2024-01-15T00:01:58;99870.22;;;-3.06;100.00
9059;BME280;4564;42.034;25.834;2024-01-15T00:04:24;99871.78;;;-3.27;100.00
9059;BME280;4564;42.034;25.834;2024-01-15T00:06:52;99873.06;;;-3.32;100.00
9059;BME280;4564;42.034;25.834;2024-01-15T00:09:19;99861.84;;;-3.36;100.00
9059;BME280;4564;42.034;25.834;2024-01-15T00:11:45;99868.44;;;-3.42;100.00
9059;BME280;4564;42.034;25.834;2024-01-15T00:14:12;99869.50;;;-3.44;100.00
9059;BME280;4564;42.034;25.834;2024-01-15T00:16:40;99865.63;;;-3.27;100.00
9059;BME280;4564;42.034;25.834;2024-01-15T00:19:06;99866.72;;;-3.30;100.00
9059;BME280;4564;42.034;25.834;2024-01-15T00:21:33;99863.84;;;-3.40;100.00
9059;BME280;4564;42.034;25.834;2024-01-15T00:24:01;99868.88;;;-3.48;100.00
9059;BME280;4564;42.034;25.834;2024-01-15T00:26:28;99870.50;;;-3.58;100.00
9059;BME280;4564;42.034;25.834;2024-01-15T00:28:54;99863.38;;;-3.57;100.00
9059;BME280;4564;42.034;25.834;2024-01-15T00:31:21;99868.97;;;-3.49;100.00
9059;BME280;4564;42.034;25.834;2024-01-15T00:33:48;99859.78;;;-3.56;100.00
9059;BME280;4564;42.034;25.834;2024-01-15T00:36:14;99862.13;;;-3.64;100.00
9059;BME280;4564;42.034;25.834;2024-01-15T00:38:42;99855.53;;;-3.71;100.00
9059;BME280;4564;42.034;25.834;2024-01-15T00:41:10;99857.69;;;-3.89;100.00
9059;BME280;4564;42.034;25.834;2024-01-15T00:43:36;99849.00;;;-3.78;100.00
9059;BME280;4564;42.034;25.834;2024-01-15T00:46:03;99855.97;;;-3.77;100.00
9059;BME280;4564;42.034;25.834;2024-01-15T00:48:30;99855.63;;;-3.60;100.00
9059;BME280;4564;42.034;25.834;2024-01-15T00:50:56;99856.19;;;-3.68;100.00
9059;BME280;4564;42.034;25.834;2024-01-15T00:53:23;99852.59;;;-3.79;100.00
9059;BME280;4564;42.034;25.834;2024-01-15T00:55:50;99847.28;;;-3.79;100.00
9059;BME280;4564;42.034;25.834;2024-01-15T00:58:18;99843.56;;;-3.77;100.00
9059;BME280;4564;42.034;25.834;2024-01-15T01:00:44;99849.72;;;-3.76;100.00
9059;BME280;4564;42.034;25.834;2024-01-15T01:03:11;99840.06;;;-3.77;100.00
9059;BME280;4564;42.034;25.834;2024-01-15T01:05:37;99839.84;;;-3.62;100.00
9059;BME280;4564;42.034;25.834;2024-01-15T01:08:04;99846.22;;;-3.64;100.00
9059;BME280;4564;42.034;25.834;2024-01-15T01:10:31;99841.09;;;-3.55;100.00
9059;BME280;4564;42.034;25.834;2024-01-15T01:12:57;99839.59;;;-3.46;100.00
9059;BME280;4564;42.034;25.834;2024-01-15T01:15:25;99836.97;;;-3.46;100.00
9059;BME280;4564;42.034;25.834;2024-01-15T01:17:52;99841.94;;;-3.54;100.00
9059;BME280;4564;42.034;25.834;2024-01-15T01:20:19;99840.56;;;-3.60;100.00
9059;BME280;4564;42.034;25.834;2024-01-15T01:22:46;99837.72;;;-3.57;100.00
9059;BME280;4564;42.034;25.834;2024-01-15T01:25:12;99842.59;;;-3.63;100.00
9059;BME280;4564;42.034;25.834;2024-01-15T01:27:39;99842.63;;;-3.76;100.00
9059;BME280;4564;42.034;25.834;2024-01-15T01:30:06;99843.03;;;-3.82;100.00
9059;BME280;4564;42.034;25.834;2024-01-15T01:32:34;99843.91;;;-3.82;100.00
9059;BME280;4564;42.034;25.834;2024-01-15T01:35:01;99841.75;;;-3.76;100.00
9059;BME280;4564;42.034;25.834;2024-01-15T01:37:27;99844.50;;;-3.65;100.00
9059;BME280;4564;42.034;25.834;2024-01-15T01:39:54;99843.03;;;-3.69;100.00
9059;BME280;4564;42.034;25.834;2024-01-15T01:42:20;99847.50;;;-3.83;100.00
9059;BME280;4564;42.034;25.834;2024-01-15T01:44:47;99852.50;;;-3.91;100.00
9059;BME280;4564;42.034;25.834;2024-01-15T01:47:14;99839.34;;;-3.92;100.00
9059;BME280;4564;42.034;25.834;2024-01-15T01:49:42;99842.75;;;-3.90;100.00
9059;BME280;4564;42.034;25.834;2024-01-15T01:52:09;99836.91;;;-3.83;100.00
9059;BME280;4564;42.034;25.834;2024-01-15T01:54:36;99842.41;;;-3.86;100.00
9059;BME280;4564;42.034;25.834;2024-01-15T01:57:03;99838.81;;;-3.97;100.00
9059;BME280;4564;42.034;25.834;2024-01-15T01:59:30;99840.75;;;-4.12;100.00
9059;BME280;4564;42.034;25.834;2024-01-15T02:01:58;99842.31;;;-4.09;100.00
9059;BME280;4564;42.034;25.834;2024-01-15T02:04:26;99835.00;;;-3.93;100.00
9059;BME280;4564;42.034;25.834;2024-01-15T02:06:54;99846.16;;;-4.01;100.00
9059;BME280;4564;42.034;25.834;2024-01-15T02:09:21;99846.66;;;-4.08;100.00
9059;BME280;4564;42.034;25.834;2024-01-15T02:11:47;99835.97;;;-4.19;100.00
9059;BME280;4564;42.034;25.834;2024-01-15T02:14:14;99829.72;;;-4.18;100.00
9059;BME280;4564;42.034;25.834;2024-01-15T02:16:41;99828.16;;;-4.21;100.00
9059;BME280;4564;42.034;25.834;2024-01-15T02:19:10;99827.38;;;-4.23;100.00
9059;BME280;4564;42.034;25.834;2024-01-15T02:21:40;99829.94;;;-4.21;100.00
9059;BME280;4564;42.034;25.834;2024-01-15T02:24:08;99828.03;;;-4.32;100.00
9059;BME280;4564;42.034;25.834;2024-01-15T02:26:35;99823.75;;;-4.47;100.00
9059;BME280;4564;42.034;25.834;2024-01-15T02:29:03;99823.78;;;-4.35;100.00
9059;BME280;4564;42.034;25.834;2024-01-15T02:31:31;99819.53;;;-4.25;100.00
9059;BME280;4564;42.034;25.834;2024-01-15T02:33:57;99821.66;;;-4.30;100.00
9059;BME280;4564;42.034;25.834;2024-01-15T02:36:24;99826.09;;;-4.30;100.00
9059;BME280;4564;42.034;25.834;2024-01-15T02:38:50;99821.66;;;-4.30;100.00
9059;BME280;4564;42.034;25.834;2024-01-15T02:41:18;99813.94;;;-4.07;100.00
9059;BME280;4564;42.034;25.834;2024-01-15T02:43:45;99819.34;;;-4.21;100.00
9059;BME280;4564;42.034;25.834;2024-01-15T02:46:11;99812.56;;;-4.38;99.93
9059;BME280;4564;42.034;25.834;2024-01-15T02:48:38;99812.97;;;-4.44;99.82
9059;BME280;4564;42.034;25.834;2024-01-15T02:51:04;99817.53;;;-4.46;100.00
9059;BME280;4564;42.034;25.834;2024-01-15T02:53:31;99799.00;;;-4.46;100.00
9059;BME280;4564;42.034;25.834;2024-01-15T02:55:57;99796.69;;;-4.38;100.00
9059;BME280;4564;42.034;25.834;2024-01-15T02:58:25;99798.34;;;-4.25;100.00
9059;BME280;4564;42.034;25.834;2024-01-15T03:00:52;99797.50;;;-4.25;100.00
9059;BME280;4564;42.034;25.834;2024-01-15T03:03:18;99797.41;;;-4.36;100.00
9059;BME280;4564;42.034;25.834;2024-01-15T03:05:45;99794.56;;;-4.33;100.00
9059;BME280;4564;42.034;25.834;2024-01-15T03:08:12;99795.50;;;-4.34;100.00
9059;BME280;4564;42.034;25.834;2024-01-15T03:10:39;99796.03;;;-4.42;100.00
9059;BME280;4564;42.034;25.834;2024-01-15T03:13:05;99792.22;;;-4.38;100.00
9059;BME280;4564;42.034;25.834;2024-01-15T03:15:33;99787.34;;;-4.18;100.00
9059;BME280;4564;42.034;25.834;2024-01-15T03:18:00;99787.34;;;-4.31;100.00
9059;BME280;4564;42.034;25.834;2024-01-15T03:20:26;99784.50;;;-4.28;100.00
9059;BME280;4564;42.034;25.834;2024-01-15T03:22:53;99779.72;;;-4.23;100.00
9059;BME280;4564;42.034;25.834;2024-01-15T03:25:19;99785.53;;;-4.31;100.00
9059;BME280;4564;42.034;25.834;2024-01-15T03:27:46;99774.84;;;-4.29;100.00
9059;BME280;4564;42.034;25.834;2024-01-15T03:30:13;99783.53;;;-4.40;100.00
9059;BME280;4564;42.034;25.834;2024-01-15T03:32:41;99783.84;;;-4.44;100.00
9059;BME280;4564;42.034;25.834;2024-01-15T03:35:07;99779.94;;;-4.51;100.00
9059;BME280;4564;42.034;25.834;2024-01-15T03:37:34;99784.38;;;-4.64;100.00
9059;BME280;4564;42.034;25.834;2024-01-15T03:40:01;99792.59;;;-4.82;100.00
9059;BME280;4564;42.034;25.834;2024-01-15T03:42:27;99797.22;;;-4.85;100.00
9059;BME280;4564;42.034;25.834;2024-01-15T03:44:54;99796.50;;;-4.87;100.00
9059;BME280;4564;42.034;25.834;2024-01-15T03:47:20;99806.28;;;-4.75;100.00
9059;BME280;4564;42.034;25.834;2024-01-15T03:49:48;99803.63;;;-4.75;100.00
9059;BME280;4564;42.034;25.834;2024-01-15T03:52:15;99799.06;;;-4.73;99.82
9059;BME280;4564;42.034;25.834;2024-01-15T03:54:41;99794.53;;;-4.71;99.69
9059;BME280;4564;42.034;25.834;2024-01-15T03:57:08;99798.34;;;-4.62;100.00
9059;BME280;4564;42.034;25.834;2024-01-15T03:59:34;99798.97;;;-4.72;99.99
9059;BME280;4564;42.034;25.834;2024-01-15T04:02:01;99805.56;;;-4.64;100.00
9059;BME280;4564;42.034;25.834;2024-01-15T04:04:28;99799.41;;;-4.52;100.00
9059;BME280;4564;42.034;25.834;2024-01-15T04:06:56;99790.75;;;-4.54;99.90
9059;BME280;4564;42.034;25.834;2024-01-15T04:09:23;99795.63;;;-4.48;100.00
9059;BME280;4564;42.034;25.834;2024-01-15T04:11:49;99800.25;;;-4.52;100.00
9059;BME280;4564;42.034;25.834;2024-01-15T04:14:16;99807.44;;;-4.67;99.11
9059;BME280;4564;42.034;25.834;2024-01-15T04:16:42;99809.34;;;-4.69;99.76
9059;BME280;4564;42.034;25.834;2024-01-15T04:19:09;99811.25;;;-4.71;99.12
9059;BME280;4564;42.034;25.834;2024-01-15T04:21:35;99815.75;;;-4.85;99.20
9059;BME280;4564;42.034;25.834;2024-01-15T04:24:04;99817.69;;;-4.75;99.73
9059;BME280;4564;42.034;25.834;2024-01-15T04:26:31;99824.06;;;-4.64;99.88
9059;BME280;4564;42.034;25.834;2024-01-15T04:28:57;99824.94;;;-4.51;99.94
9059;BME280;4564;42.034;25.834;2024-01-15T04:31:24;99825.88;;;-4.52;99.92
9059;BME280;4564;42.034;25.834;2024-01-15T04:33:52;99827.13;;;-4.58;99.50
9059;BME280;4564;42.034;25.834;2024-01-15T04:36:18;99822.38;;;-4.66;98.99
9059;BME280;4564;42.034;25.834;2024-01-15T04:38:45;99826.59;;;-4.63;100.00
9059;BME280;4564;42.034;25.834;2024-01-15T04:41:13;99814.31;;;-4.64;99.36
9059;BME280;4564;42.034;25.834;2024-01-15T04:43:40;99809.16;;;-4.66;99.35
9059;BME280;4564;42.034;25.834;2024-01-15T04:46:07;99805.63;;;-4.79;98.94
9059;BME280;4564;42.034;25.834;2024-01-15T04:48:33;99802.38;;;-4.70;99.18
9059;BME280;4564;42.034;25.834;2024-01-15T04:51:00;99793.25;;;-4.53;100.00
9059;BME280;4564;42.034;25.834;2024-01-15T04:53:26;99802.06;;;-4.65;98.73
9059;BME280;4564;42.034;25.834;2024-01-15T04:55:53;99792.78;;;-4.97;97.98
9059;BME280;4564;42.034;25.834;2024-01-15T04:58:21;99793.75;;;-5.25;98.63
9059;BME280;4564;42.034;25.834;2024-01-15T05:00:50;99799.03;;;-5.25;99.09
9059;BME280;4564;42.034;25.834;2024-01-15T05:03:16;99796.47;;;-5.27;99.34
9059;BME280;4564;42.034;25.834;2024-01-15T05:05:43;99793.94;;;-5.28;98.86
9059;BME280;4564;42.034;25.834;2024-01-15T05:08:10;99794.94;;;-5.43;98.17
9059;BME280;4564;42.034;25.834;2024-01-15T05:10:36;99793.50;;;-5.62;99.09
9059;BME280;4564;42.034;25.834;2024-01-15T05:13:03;99791.41;;;-5.71;99.14
9059;BME280;4564;42.034;25.834;2024-01-15T05:15:31;99793.72;;;-5.79;99.57
9059;BME280;4564;42.034;25.834;2024-01-15T05:17:57;99788.22;;;-5.76;100.00
9059;BME280;4564;42.034;25.834;2024-01-15T05:20:24;99783.00;;;-5.63;100.00
9059;BME280;4564;42.034;25.834;2024-01-15T05:22:50;99775.19;;;-5.65;100.00
9059;BME280;4564;42.034;25.834;2024-01-15T05:25:17;99779.16;;;-5.72;100.00
9059;BME280;4564;42.034;25.834;2024-01-15T05:27:43;99767.63;;;-5.71;100.00
9059;BME280;4564;42.034;25.834;2024-01-15T05:30:10;99765.13;;;-5.45;100.00
9059;BME280;4564;42.034;25.834;2024-01-15T05:32:38;99767.16;;;-5.36;100.00
9059;BME280;4564;42.034;25.834;2024-01-15T05:35:05;99772.38;;;-5.35;100.00
9059;BME280;4564;42.034;25.834;2024-01-15T05:37:32;99771.94;;;-5.29;100.00
9059;BME280;4564;42.034;25.834;2024-01-15T05:39:58;99767.84;;;-5.20;100.00
9059;BME280;4564;42.034;25.834;2024-01-15T05:42:25;99765.53;;;-5.12;100.00
9059;BME280;4564;42.034;25.834;2024-01-15T05:44:51;99767.00;;;-4.81;100.00
9059;BME280;4564;42.034;25.834;2024-01-15T05:47:18;99764.53;;;-4.84;100.00
9059;BME280;4564;42.034;25.834;2024-01-15T05:49:46;99769.31;;;-4.77;100.00
9059;BME280;4564;42.034;25.834;2024-01-15T05:52:13;99768.78;;;-4.69;100.00
9059;BME280;4564;42.034;25.834;2024-01-15T05:54:39;99766.56;;;-4.62;100.00
9059;BME280;4564;42.034;25.834;2024-01-15T05:57:06;99774.44;;;-4.48;100.00
9059;BME280;4564;42.034;25.834;2024-01-15T05:59:33;99767.88;;;-4.43;100.00
9059;BME280;4564;42.034;25.834;2024-01-15T06:02:01;99759.59;;;-4.38;100.00
9059;BME280;4564;42.034;25.834;2024-01-15T06:04:28;99764.91;;;-4.38;100.00
9059;BME280;4564;42.034;25.834;2024-01-15T06:06:55;99770.28;;;-4.52;100.00
9059;BME280;4564;42.034;25.834;2024-01-15T06:09:22;99772.94;;;-4.40;99.76
9059;BME280;4564;42.034;25.834;2024-01-15T06:11:49;99769.34;;;-4.39;99.59
9059;BME280;4564;42.034;25.834;2024-01-15T06:14:15;99758.44;;;-4.34;99.31
9059;BME280;4564;42.034;25.834;2024-01-15T06:16:42;99756.97;;;-4.38;98.65
9059;BME280;4564;42.034;25.834;2024-01-15T06:19:08;99759.91;;;-4.30;99.02
9059;BME280;4564;42.034;25.834;2024-01-15T06:21:35;99754.94;;;-4.47;97.56
9059;BME280;4564;42.034;25.834;2024-01-15T06:24:03;99747.75;;;-4.45;98.32
9059;BME280;4564;42.034;25.834;2024-01-15T06:26:30;99747.84;;;-4.34;97.20
9059;BME280;4564;42.034;25.834;2024-01-15T06:28:56;99754.63;;;-4.30;96.51
9059;BME280;4564;42.034;25.834;2024-01-15T06:31:23;99737.97;;;-4.07;97.03
9059;BME280;4564;42.034;25.834;2024-01-15T06:33:49;99740.91;;;-3.99;96.34
9059;BME280;4564;42.034;25.834;2024-01-15T06:36:16;99730.88;;;-3.83;95.89
9059;BME280;4564;42.034;25.834;2024-01-15T06:38:43;99734.28;;;-3.81;95.75
9059;BME280;4564;42.034;25.834;2024-01-15T06:41:11;99742.31;;;-3.69;96.44
9059;BME280;4564;42.034;25.834;2024-01-15T06:43:37;99739.69;;;-3.46;95.87
9059;BME280;4564;42.034;25.834;2024-01-15T06:46:04;99749.78;;;-3.27;96.26
9059;BME280;4564;42.034;25.834;2024-01-15T06:48:30;99745.63;;;-3.07;95.14
9059;BME280;4564;42.034;25.834;2024-01-15T06:50:57;99739.72;;;-3.11;93.61
9059;BME280;4564;42.034;25.834;2024-01-15T06:53:24;99740.97;;;-3.04;93.40
9059;BME280;4564;42.034;25.834;2024-01-15T06:55:50;99745.09;;;-2.88;94.26
9059;BME280;4564;42.034;25.834;2024-01-15T06:58:18;99739.50;;;-3.08;94.69
9059;BME280;4564;42.034;25.834;2024-01-15T07:00:45;99739.06;;;-2.90;96.04
9059;BME280;4564;42.034;25.834;2024-01-15T07:03:11;99741.25;;;-2.84;96.62
9059;BME280;4564;42.034;25.834;2024-01-15T07:05:38;99736.72;;;-2.60;97.63
9059;BME280;4564;42.034;25.834;2024-01-15T07:08:05;99736.50;;;-2.46;97.61
9059;BME280;4564;42.034;25.834;2024-01-15T07:10:31;99742.88;;;-2.71;96.55
9059;BME280;4564;42.034;25.834;2024-01-15T07:12:58;99751.47;;;-2.56;97.20
9059;BME280;4564;42.034;25.834;2024-01-15T07:15:25;99735.28;;;-2.42;98.00
9059;BME280;4564;42.034;25.834;2024-01-15T07:17:52;99741.72;;;-2.22;99.99
9059;BME280;4564;42.034;25.834;2024-01-15T07:20:19;99748.22;;;-2.15;100.00
9059;BME280;4564;42.034;25.834;2024-01-15T07:22:45;99757.78;;;-2.13;98.05
9059;BME280;4564;42.034;25.834;2024-01-15T07:25:12;99766.97;;;-2.05;96.96
9059;BME280;4564;42.034;25.834;2024-01-15T07:27:39;99762.16;;;-1.89;97.91
9059;BME280;4564;42.034;25.834;2024-01-15T07:30:08;99744.22;;;-1.76;99.44
9059;BME280;4564;42.034;25.834;2024-01-15T07:32:36;99752.69;;;-1.71;100.00
9059;BME280;4564;42.034;25.834;2024-01-15T07:35:02;99744.22;;;-1.65;100.00
9059;BME280;4564;42.034;25.834;2024-01-15T07:37:29;99739.34;;;-1.49;100.00
9059;BME280;4564;42.034;25.834;2024-01-15T07:39:55;99745.41;;;-1.47;100.00
9059;BME280;4564;42.034;25.834;2024-01-15T07:42:22;99741.47;;;-1.32;100.00
9059;BME280;4564;42.034;25.834;2024-01-15T07:44:49;99741.81;;;-1.25;99.59
9059;BME280;4564;42.034;25.834;2024-01-15T07:47:16;99746.81;;;-1.32;98.88
9059;BME280;4564;42.034;25.834;2024-01-15T07:49:44;99744.38;;;-1.35;97.81
9059;BME280;4564;42.034;25.834;2024-01-15T07:52:11;99738.44;;;-1.70;98.34
9059;BME280;4564;42.034;25.834;2024-01-15T07:54:38;99739.16;;;-1.68;99.10
9059;BME280;4564;42.034;25.834;2024-01-15T07:57:05;99746.97;;;-1.55;100.00
9059;BME280;4564;42.034;25.834;2024-01-15T07:59:31;99740.31;;;-1.50;100.00
9059;BME280;4564;42.034;25.834;2024-01-15T08:01:58;99731.44;;;-1.39;100.00
9059;BME280;4564;42.034;25.834;2024-01-15T08:04:25;99723.19;;;-1.25;100.00
9059;BME280;4564;42.034;25.834;2024-01-15T08:06:53;99732.19;;;-1.05;100.00
9059;BME280;4564;42.034;25.834;2024-01-15T08:09:20;99743.56;;;-1.03;100.00
9059;BME280;4564;42.034;25.834;2024-01-15T08:11:46;99756.41;;;-1.08;100.00
9059;BME280;4564;42.034;25.834;2024-01-15T08:14:14;99752.28;;;-1.12;100.00
9059;BME280;4564;42.034;25.834;2024-01-15T08:16:41;99753.03;;;-0.90;100.00
9059;BME280;4564;42.034;25.834;2024-01-15T08:19:08;99754.75;;;-0.89;100.00
9059;BME280;4564;42.034;25.834;2024-01-15T08:21:35;99748.06;;;-0.83;100.00
9059;BME280;4564;42.034;25.834;2024-01-15T08:24:03;99751.06;;;-0.76;100.00
9059;BME280;4564;42.034;25.834;2024-01-15T08:26:30;99748.13;;;-0.73;100.00
9059;BME280;4564;42.034;25.834;2024-01-15T08:28:57;99747.94;;;-0.61;100.00
9059;BME280;4564;42.034;25.834;2024-01-15T08:31:24;99734.41;;;-0.48;100.00
9059;BME280;4564;42.034;25.834;2024-01-15T08:33:50;99735.13;;;-0.46;100.00
9059;BME280;4564;42.034;25.834;2024-01-15T08:36:17;99727.16;;;-0.67;100.00
9059;BME280;4564;42.034;25.834;2024-01-15T08:38:44;99728.00;;;-0.87;100.00
9059;BME280;4564;42.034;25.834;2024-01-15T08:41:13;99738.19;;;-0.92;100.00
9059;BME280;4564;42.034;25.834;2024-01-15T08:43:39;99745.44;;;-0.94;100.00
9059;BME280;4564;42.034;25.834;2024-01-15T08:46:06;99731.56;;;-0.98;100.00
9059;BME280;4564;42.034;25.834;2024-01-15T08:48:33;99734.53;;;-0.91;100.00
9059;BME280;4564;42.034;25.834;2024-01-15T08:51:00;99727.59;;;-0.82;100.00
9059;BME280;4564;42.034;25.834;2024-01-15T08:53:27;99733.97;;;-0.74;100.00
9059;BME280;4564;42.034;25.834;2024-01-15T08:55:53;99736.94;;;-0.67;100.00
9059;BME280;4564;42.034;25.834;2024-01-15T08:58:22;99684.19;;;-1.15;100.00
9059;BME280;4564;42.034;25.834;2024-01-15T09:00:49;99740.06;;;-0.83;100.00
9059;BME280;4564;42.034;25.834;2024-01-15T09:03:16;99731.63;;;-0.67;100.00
9059;BME280;4564;42.034;25.834;2024-01-15T09:05:43;99725.31;;;-0.46;100.00
9059;BME280;4564;42.034;25.834;2024-01-15T09:08:08;99717.38;;;-0.36;100.00
9059;BME280;4564;42.034;25.834;2024-01-15T09:10:35;99693.25;;;0.06;100.00
9059;BME280;4564;42.034;25.834;2024-01-15T09:13:02;99660.69;;;0.02;100.00
9059;BME280;4564;42.034;25.834;2024-01-15T09:15:31;99699.28;;;0.57;99.81
9059;BME280;4564;42.034;25.834;2024-01-15T09:17:58;99692.81;;;0.60;98.52
9059;BME280;4564;42.034;25.834;2024-01-15T09:20:24;99688.34;;;0.89;99.02
9059;BME280;4564;42.034;25.834;2024-01-15T09:22:52;99683.41;;;0.94;97.32
9059;BME280;4564;42.034;25.834;2024-01-15T09:25:19;99676.09;;;1.06;97.15
9059;BME280;4564;42.034;25.834;2024-01-15T09:27:45;99679.88;;;1.22;97.42
9059;BME280;4564;42.034;25.834;2024-01-15T09:30:12;99669.44;;;1.39;96.27
9059;BME280;4564;42.034;25.834;2024-01-15T09:32:40;99663.72;;;1.71;95.48
9059;BME280;4564;42.034;25.834;2024-01-15T09:35:07;99662.09;;;1.41;94.98
9059;BME280;4564;42.034;25.834;2024-01-15T09:37:34;99661.69;;;1.36;96.48
9059;BME280;4564;42.034;25.834;2024-01-15T09:40:00;99650.44;;;1.42;95.75
9059;BME280;4564;42.034;25.834;2024-01-15T09:42:28;99651.91;;;1.63;96.42
9059;BME280;4564;42.034;25.834;2024-01-15T09:44:55;99650.78;;;1.66;95.38
9059;BME280;4564;42.034;25.834;2024-01-15T09:47:22;99657.78;;;1.77;94.60
9059;BME280;4564;42.034;25.834;2024-01-15T09:49:51;99642.66;;;1.85;94.53
9059;BME280;4564;42.034;25.834;2024-01-15T09:52:18;99652.31;;;1.96;94.04
9059;BME280;4564;42.034;25.834;2024-01-15T09:54:45;99657.44;;;1.62;94.19
9059;BME280;4564;42.034;25.834;2024-01-15T09:57:12;99637.22;;;1.77;94.67
9059;BME280;4564;42.034;25.834;2024-01-15T09:59:39;99622.25;;;1.84;94.35
9059;BME280;4564;42.034;25.834;2024-01-15T10:02:06;99611.94;;;1.89;95.09
9059;BME280;4564;42.034;25.834;2024-01-15T10:04:33;99631.78;;;1.96;94.94
9059;BME280;4564;42.034;25.834;2024-01-15T10:07:01;99626.38;;;2.06;94.47
9059;BME280;4564;42.034;25.834;2024-01-15T10:09:29;99626.34;;;2.33;94.65
9059;BME280;4564;42.034;25.834;2024-01-15T10:11:56;99617.16;;;2.71;93.41
9059;BME280;4564;42.034;25.834;2024-01-15T10:14:23;99617.84;;;2.73;92.78
9059;BME280;4564;42.034;25.834;2024-01-15T10:16:49;99608.97;;;2.90;91.88
9059;BME280;4564;42.034;25.834;2024-01-15T10:19:16;99598.63;;;3.21;90.80
9059;BME280;4564;42.034;25.834;2024-01-15T10:21:42;99592.06;;;3.16;89.93
9059;BME280;4564;42.034;25.834;2024-01-15T10:24:10;99586.56;;;3.17;90.59
9059;BME280;4564;42.034;25.834;2024-01-15T10:26:38;99586.38;;;3.19;90.11
9059;BME280;4564;42.034;25.834;2024-01-15T10:29:04;99572.25;;;3.34;91.42
9059;BME280;4564;42.034;25.834;2024-01-15T10:31:31;99566.38;;;3.73;90.56
9059;BME280;4564;42.034;25.834;2024-01-15T10:34:02;99565.13;;;4.01;89.11
9059;BME280;4564;42.034;25.834;2024-01-15T10:36:35;99561.16;;;4.21;87.97
9059;BME280;4564;42.034;25.834;2024-01-15T10:39:02;99557.63;;;4.13;88.23
9059;BME280;4564;42.034;25.834;2024-01-15T10:41:30;99554.81;;;4.31;87.89
9059;BME280;4564;42.034;25.834;2024-01-15T10:43:57;99559.84;;;4.50;87.87
9059;BME280;4564;42.034;25.834;2024-01-15T10:46:24;99549.28;;;4.48;86.96
9059;BME280;4564;42.034;25.834;2024-01-15T10:48:51;99551.13;;;4.72;87.65
9059;BME280;4564;42.034;25.834;2024-01-15T10:51:17;99549.63;;;4.37;86.26
9059;BME280;4564;42.034;25.834;2024-01-15T10:53:44;99543.91;;;4.48;87.36
9059;BME280;4564;42.034;25.834;2024-01-15T10:56:11;99537.34;;;4.59;87.91
9059;BME280;4564;42.034;25.834;2024-01-15T10:58:40;99533.66;;;4.60;87.09
9059;BME280;4564;42.034;25.834;2024-01-15T11:01:08;99537.72;;;4.64;86.71
9059;BME280;4564;42.034;25.834;2024-01-15T11:03:35;99523.59;;;4.54;88.58
9059;BME280;4564;42.034;25.834;2024-01-15T11:06:02;99513.53;;;4.64;87.74
9059;BME280;4564;42.034;25.834;2024-01-15T11:08:29;99512.84;;;4.78;87.69
9059;BME280;4564;42.034;25.834;2024-01-15T11:10:55;99499.88;;;4.98;87.69
9059;BME280;4564;42.034;25.834;2024-01-15T11:13:24;99499.50;;;5.17;86.52
9059;BME280;4564;42.034;25.834;2024-01-15T11:16:07;99494.69;;;5.43;87.16
9059;BME280;4564;42.034;25.834;2024-01-15T11:18:35;99492.59;;;5.62;84.79
9059;BME280;4564;42.034;25.834;2024-01-15T11:21:20;99490.00;;;5.37;84.01
9059;BME280;4564;42.034;25.834;2024-01-15T11:23:47;99484.09;;;4.87;85.81
9059;BME280;4564;42.034;25.834;2024-01-15T11:29:04;99459.75;;;4.96;85.99
9059;BME280;4564;42.034;25.834;2024-01-15T11:34:18;99459.38;;;4.99;87.19
9059;BME280;4564;42.034;25.834;2024-01-15T11:37:00;99458.22;;;5.02;86.05
9059;BME280;4564;42.034;25.834;2024-01-15T11:39:39;99464.31;;;4.80;87.17
9059;BME280;4564;42.034;25.834;2024-01-15T11:42:07;99462.66;;;4.62;88.11
9059;BME280;4564;42.034;25.834;2024-01-15T11:44:34;99455.88;;;4.83;88.26
9059;BME280;4564;42.034;25.834;2024-01-15T11:47:01;99461.59;;;4.88;88.53
9059;BME280;4564;42.034;25.834;2024-01-15T11:49:33;99462.22;;;4.98;88.44
9059;BME280;4564;42.034;25.834;2024-01-15T11:52:08;99456.53;;;5.01;88.03
9059;BME280;4564;42.034;25.834;2024-01-15T11:54:37;99460.41;;;5.37;88.25
9059;BME280;4564;42.034;25.834;2024-01-15T11:57:06;99460.25;;;5.39;87.58
9059;BME280;4564;42.034;25.834;2024-01-15T11:59:36;99460.50;;;5.21;88.05
9059;BME280;4564;42.034;25.834;2024-01-15T12:02:02;99461.41;;;5.44;88.26
9059;BME280;4564;42.034;25.834;2024-01-15T12:04:30;99465.94;;;5.75;87.81
9059;BME280;4564;42.034;25.834;2024-01-15T12:06:57;99465.31;;;6.04;85.85
9059;BME280;4564;42.034;25.834;2024-01-15T12:09:24;99462.50;;;6.20;84.43
9059;BME280;4564;42.034;25.834;2024-01-15T12:11:51;99460.69;;;6.12;85.23
9059;BME280;4564;42.034;25.834;2024-01-15T12:14:21;99457.13;;;6.20;85.12
9059;BME280;4564;42.034;25.834;2024-01-15T12:16:47;99449.75;;;6.37;84.73
9059;BME280;4564;42.034;25.834;2024-01-15T12:19:14;99439.53;;;6.47;84.68
9059;BME280;4564;42.034;25.834;2024-01-15T12:21:43;99431.09;;;6.50;84.47
9059;BME280;4564;42.034;25.834;2024-01-15T12:24:11;99422.81;;;6.51;84.90
9059;BME280;4564;42.034;25.834;2024-01-15T12:26:37;99415.69;;;6.58;85.76
9059;BME280;4564;42.034;25.834;2024-01-15T12:29:05;99420.88;;;6.60;85.38
9059;BME280;4564;42.034;25.834;2024-01-15T12:31:32;99414.06;;;6.35;86.50
9059;BME280;4564;42.034;25.834;2024-01-15T12:33:59;99408.72;;;6.26;86.45
9059;BME280;4564;42.034;25.834;2024-01-15T12:36:25;99401.81;;;6.09;87.13
9059;BME280;4564;42.034;25.834;2024-01-15T12:38:53;99398.97;;;5.80;88.17
9059;BME280;4564;42.034;25.834;2024-01-15T12:41:25;99397.47;;;5.46;89.65
9059;BME280;4564;42.034;25.834;2024-01-15T12:43:52;99386.56;;;5.17;90.89
9059;BME280;4564;42.034;25.834;2024-01-15T12:46:18;99385.56;;;5.10;92.19
9059;BME280;4564;42.034;25.834;2024-01-15T12:48:45;99378.03;;;5.05;91.33
9059;BME280;4564;42.034;25.834;2024-01-15T12:51:12;99380.41;;;5.00;92.17
9059;BME280;4564;42.034;25.834;2024-01-15T12:53:38;99370.63;;;4.69;93.11
9059;BME280;4564;42.034;25.834;2024-01-15T12:56:07;99371.28;;;4.62;94.64
9059;BME280;4564;42.034;25.834;2024-01-15T12:58:33;99363.50;;;4.84;94.23
9059;BME280;4564;42.034;25.834;2024-01-15T13:01:00;99368.00;;;4.91;93.59
9059;BME280;4564;42.034;25.834;2024-01-15T13:03:26;99373.56;;;4.90;94.01
9059;BME280;4564;42.034;25.834;2024-01-15T13:05:53;99376.56;;;4.95;94.72
9059;BME280;4564;42.034;25.834;2024-01-15T13:08:20;99368.25;;;5.13;94.15
9059;BME280;4564;42.034;25.834;2024-01-15T13:10:49;99383.03;;;5.08;93.19
9059;BME280;4564;42.034;25.834;2024-01-15T13:13:18;99376.34;;;5.13;93.70
9059;BME280;4564;42.034;25.834;2024-01-15T13:15:45;99366.50;;;4.89;93.25